sensor_id;sensor_type;location;lat;lon;timestamp;P1;durP1;ratioP1;P2;durP2;ratioP2
46487;SDS011;32202;48.780;9.204;2022-10-14T00:00:16;10.27;;;5.50;;
46487;SDS011;32202;48.780;9.204;2022-10-14T00:02:42;17.20;;;9.88;;
46487;SDS011;32202;48.780;9.204;2022-10-14T00:05:07;13.25;;;8.75;;
46487;SDS011;32202;48.780;9.204;2022-10-14T00:07:34;219.35;;;146.50;;
46487;SDS011;32202;48.780;9.204;2022-10-14T00:10:00;313.90;;;216.40;;
46487;SDS011;32202;48.780;9.204;2022-10-14T00:12:27;295.05;;;202.07;;
46487;SDS011;32202;48.780;9.204;2022-10-14T00:14:53;108.00;;;69.68;;
46487;SDS011;32202;48.780;9.204;2022-10-14T00:17:20;35.05;;;20.55;;
46487;SDS011;32202;48.780;9.204;2022-10-14T00:19:46;16.67;;;9.48;;
46487;SDS011;32202;48.780;9.204;2022-10-14T00:22:11;27.60;;;17.08;;
46487;SDS011;32202;48.780;9.204;2022-10-14T00:24:37;48.10;;;26.05;;
46487;SDS011;32202;48.780;9.204;2022-10-14T00:27:03;14.38;;;8.43;;
46487;SDS011;32202;48.780;9.204;2022-10-14T00:29:29;32.47;;;18.92;;
46487;SDS011;32202;48.780;9.204;2022-10-14T00:31:55;60.03;;;36.03;;
46487;SDS011;32202;48.780;9.204;2022-10-14T00:34:20;78.68;;;44.88;;
46487;SDS011;32202;48.780;9.204;2022-10-14T00:36:46;60.53;;;36.15;;
46487;SDS011;32202;48.780;9.204;2022-10-14T00:39:12;61.67;;;35.17;;
46487;SDS011;32202;48.780;9.204;2022-10-14T00:41:38;32.63;;;19.65;;
46487;SDS011;32202;48.780;9.204;2022-10-14T00:44:06;21.13;;;12.30;;
46487;SDS011;32202;48.780;9.204;2022-10-14T00:46:39;11.23;;;7.18;;
46487;SDS011;32202;48.780;9.204;2022-10-14T00:49:08;30.10;;;16.52;;
46487;SDS011;32202;48.780;9.204;2022-10-14T00:52:22;30.83;;;18.75;;
46487;SDS011;32202;48.780;9.204;2022-10-14T00:55:02;40.60;;;22.08;;
46487;SDS011;32202;48.780;9.204;2022-10-14T00:57:31;57.50;;;33.28;;
46487;SDS011;32202;48.780;9.204;2022-10-14T01:00:00;50.00;;;29.63;;
46487;SDS011;32202;48.780;9.204;2022-10-14T01:04:54;89.88;;;51.13;;
46487;SDS011;32202;48.780;9.204;2022-10-14T01:10:08;39.35;;;24.48;;
46487;SDS011;32202;48.780;9.204;2022-10-14T01:38:12;27.83;;;16.52;;
46487;SDS011;32202;48.780;9.204;2022-10-14T01:40:45;13.02;;;8.98;;
46487;SDS011;32202;48.780;9.204;2022-10-14T01:43:18;10.07;;;6.82;;
46487;SDS011;32202;48.780;9.204;2022-10-14T01:45:46;12.85;;;7.60;;
46487;SDS011;32202;48.780;9.204;2022-10-14T01:48:15;13.73;;;6.30;;
46487;SDS011;32202;48.780;9.204;2022-10-14T01:50:42;10.18;;;7.10;;
46487;SDS011;32202;48.780;9.204;2022-10-14T01:53:17;11.25;;;6.45;;
46487;SDS011;32202;48.780;9.204;2022-10-14T01:55:48;8.77;;;6.03;;
46487;SDS011;32202;48.780;9.204;2022-10-14T01:58:17;14.80;;;7.05;;
46487;SDS011;32202;48.780;9.204;2022-10-14T02:00:46;12.40;;;6.60;;
46487;SDS011;32202;48.780;9.204;2022-10-14T02:03:12;12.85;;;6.97;;
46487;SDS011;32202;48.780;9.204;2022-10-14T02:05:40;12.82;;;6.22;;
46487;SDS011;32202;48.780;9.204;2022-10-14T02:08:09;11.73;;;6.13;;
46487;SDS011;32202;48.780;9.204;2022-10-14T02:10:59;10.20;;;6.18;;
46487;SDS011;32202;48.780;9.204;2022-10-14T02:17:09;10.07;;;5.65;;
46487;SDS011;32202;48.780;9.204;2022-10-14T02:20:03;9.30;;;5.40;;
46487;SDS011;32202;48.780;9.204;2022-10-14T02:23:01;10.00;;;6.10;;
46487;SDS011;32202;48.780;9.204;2022-10-14T02:25:33;9.07;;;6.07;;
46487;SDS011;32202;48.780;9.204;2022-10-14T02:28:01;12.63;;;6.22;;
46487;SDS011;32202;48.780;9.204;2022-10-14T02:30:28;10.35;;;6.43;;
46487;SDS011;32202;48.780;9.204;2022-10-14T02:32:57;11.65;;;6.38;;
46487;SDS011;32202;48.780;9.204;2022-10-14T02:35:24;13.15;;;6.20;;
46487;SDS011;32202;48.780;9.204;2022-10-14T02:37:51;11.82;;;6.95;;
46487;SDS011;32202;48.780;9.204;2022-10-14T02:40:21;11.55;;;6.22;;
46487;SDS011;32202;48.780;9.204;2022-10-14T02:42:59;10.25;;;6.75;;
46487;SDS011;32202;48.780;9.204;2022-10-14T02:45:25;9.75;;;6.70;;
46487;SDS011;32202;48.780;9.204;2022-10-14T02:47:52;11.35;;;7.20;;
46487;SDS011;32202;48.780;9.204;2022-10-14T02:50:18;11.57;;;6.80;;
46487;SDS011;32202;48.780;9.204;2022-10-14T02:52:44;11.60;;;6.88;;
46487;SDS011;32202;48.780;9.204;2022-10-14T02:55:09;15.38;;;7.10;;
46487;SDS011;32202;48.780;9.204;2022-10-14T02:57:35;11.98;;;6.60;;
46487;SDS011;32202;48.780;9.204;2022-10-14T03:00:01;8.98;;;6.30;;
46487;SDS011;32202;48.780;9.204;2022-10-14T03:02:28;12.05;;;6.88;;
46487;SDS011;32202;48.780;9.204;2022-10-14T03:04:53;14.05;;;7.05;;
46487;SDS011;32202;48.780;9.204;2022-10-14T03:07:21;14.80;;;6.95;;
46487;SDS011;32202;48.780;9.204;2022-10-14T03:09:46;13.93;;;7.60;;
46487;SDS011;32202;48.780;9.204;2022-10-14T03:12:12;12.52;;;7.25;;
46487;SDS011;32202;48.780;9.204;2022-10-14T03:14:37;11.52;;;7.10;;
46487;SDS011;32202;48.780;9.204;2022-10-14T03:17:03;16.15;;;7.78;;
46487;SDS011;32202;48.780;9.204;2022-10-14T03:19:28;12.30;;;7.60;;
46487;SDS011;32202;48.780;9.204;2022-10-14T03:21:54;12.75;;;8.18;;
46487;SDS011;32202;48.780;9.204;2022-10-14T03:24:20;11.10;;;7.20;;
46487;SDS011;32202;48.780;9.204;2022-10-14T03:26:45;12.82;;;7.53;;
46487;SDS011;32202;48.780;9.204;2022-10-14T03:29:11;13.00;;;7.85;;
46487;SDS011;32202;48.780;9.204;2022-10-14T03:31:36;13.63;;;8.00;;
46487;SDS011;32202;48.780;9.204;2022-10-14T03:34:02;14.40;;;8.52;;
46487;SDS011;32202;48.780;9.204;2022-10-14T03:36:27;16.75;;;8.77;;
46487;SDS011;32202;48.780;9.204;2022-10-14T03:38:53;12.90;;;7.50;;
46487;SDS011;32202;48.780;9.204;2022-10-14T03:41:19;14.95;;;8.75;;
46487;SDS011;32202;48.780;9.204;2022-10-14T03:43:44;17.42;;;9.90;;
46487;SDS011;32202;48.780;9.204;2022-10-14T03:46:10;15.52;;;10.63;;
46487;SDS011;32202;48.780;9.204;2022-10-14T03:48:35;22.08;;;12.02;;
46487;SDS011;32202;48.780;9.204;2022-10-14T03:51:01;20.80;;;10.48;;
46487;SDS011;32202;48.780;9.204;2022-10-14T03:53:27;21.90;;;14.68;;
46487;SDS011;32202;48.780;9.204;2022-10-14T03:55:52;71.80;;;41.22;;
46487;SDS011;32202;48.780;9.204;2022-10-14T03:58:18;40.50;;;23.13;;
46487;SDS011;32202;48.780;9.204;2022-10-14T04:00:43;67.65;;;37.53;;
46487;SDS011;32202;48.780;9.204;2022-10-14T04:03:09;28.60;;;16.05;;
46487;SDS011;32202;48.780;9.204;2022-10-14T04:05:34;17.70;;;10.63;;
46487;SDS011;32202;48.780;9.204;2022-10-14T04:08:01;20.60;;;11.45;;
46487;SDS011;32202;48.780;9.204;2022-10-14T04:10:26;16.25;;;9.18;;
46487;SDS011;32202;48.780;9.204;2022-10-14T04:12:52;18.13;;;10.63;;
46487;SDS011;32202;48.780;9.204;2022-10-14T04:15:19;19.60;;;11.95;;
46487;SDS011;32202;48.780;9.204;2022-10-14T04:17:44;19.45;;;10.57;;
46487;SDS011;32202;48.780;9.204;2022-10-14T04:20:10;17.90;;;10.18;;
46487;SDS011;32202;48.780;9.204;2022-10-14T04:22:36;20.95;;;10.55;;
46487;SDS011;32202;48.780;9.204;2022-10-14T04:25:02;17.17;;;10.60;;
46487;SDS011;32202;48.780;9.204;2022-10-14T04:27:28;17.50;;;10.60;;
46487;SDS011;32202;48.780;9.204;2022-10-14T04:29:53;16.98;;;10.52;;
46487;SDS011;32202;48.780;9.204;2022-10-14T04:32:19;19.58;;;10.43;;
46487;SDS011;32202;48.780;9.204;2022-10-14T04:34:44;19.08;;;10.77;;
46487;SDS011;32202;48.780;9.204;2022-10-14T04:37:10;19.02;;;11.15;;
46487;SDS011;32202;48.780;9.204;2022-10-14T04:39:36;16.50;;;10.13;;
46487;SDS011;32202;48.780;9.204;2022-10-14T04:42:02;24.23;;;11.95;;
46487;SDS011;32202;48.780;9.204;2022-10-14T04:44:27;19.98;;;10.75;;
46487;SDS011;32202;48.780;9.204;2022-10-14T04:46:53;18.00;;;9.60;;
46487;SDS011;32202;48.780;9.204;2022-10-14T04:49:19;17.33;;;10.13;;
46487;SDS011;32202;48.780;9.204;2022-10-14T04:51:44;21.25;;;10.35;;
46487;SDS011;32202;48.780;9.204;2022-10-14T04:54:10;14.30;;;9.98;;
46487;SDS011;32202;48.780;9.204;2022-10-14T04:56:36;14.15;;;10.20;;
46487;SDS011;32202;48.780;9.204;2022-10-14T04:59:02;15.65;;;9.50;;
46487;SDS011;32202;48.780;9.204;2022-10-14T05:01:29;19.65;;;10.73;;
46487;SDS011;32202;48.780;9.204;2022-10-14T05:03:55;14.52;;;10.02;;
46487;SDS011;32202;48.780;9.204;2022-10-14T05:06:20;19.65;;;10.05;;
46487;SDS011;32202;48.780;9.204;2022-10-14T05:08:46;16.50;;;11.18;;
46487;SDS011;32202;48.780;9.204;2022-10-14T05:11:12;14.45;;;9.32;;
46487;SDS011;32202;48.780;9.204;2022-10-14T05:13:38;18.70;;;10.63;;
46487;SDS011;32202;48.780;9.204;2022-10-14T05:16:03;18.17;;;9.55;;
46487;SDS011;32202;48.780;9.204;2022-10-14T05:18:29;20.48;;;10.25;;
46487;SDS011;32202;48.780;9.204;2022-10-14T05:20:58;14.88;;;9.45;;
46487;SDS011;32202;48.780;9.204;2022-10-14T05:23:24;12.85;;;9.07;;
46487;SDS011;32202;48.780;9.204;2022-10-14T05:25:50;14.13;;;9.65;;
46487;SDS011;32202;48.780;9.204;2022-10-14T05:28:18;138.00;;;83.28;;
46487;SDS011;32202;48.780;9.204;2022-10-14T05:30:44;57.92;;;36.28;;
46487;SDS011;32202;48.780;9.204;2022-10-14T05:33:09;28.58;;;18.30;;
46487;SDS011;32202;48.780;9.204;2022-10-14T05:35:35;67.53;;;41.15;;
46487;SDS011;32202;48.780;9.204;2022-10-14T05:38:02;48.65;;;30.73;;
46487;SDS011;32202;48.780;9.204;2022-10-14T05:40:28;33.10;;;19.75;;
46487;SDS011;32202;48.780;9.204;2022-10-14T05:42:53;31.75;;;20.55;;
46487;SDS011;32202;48.780;9.204;2022-10-14T05:45:19;20.80;;;12.77;;
46487;SDS011;32202;48.780;9.204;2022-10-14T05:47:45;31.05;;;21.00;;
46487;SDS011;32202;48.780;9.204;2022-10-14T05:50:11;20.95;;;13.18;;
46487;SDS011;32202;48.780;9.204;2022-10-14T05:52:37;20.20;;;12.32;;
46487;SDS011;32202;48.780;9.204;2022-10-14T05:55:05;15.98;;;10.25;;
46487;SDS011;32202;48.780;9.204;2022-10-14T05:57:31;15.20;;;9.25;;
46487;SDS011;32202;48.780;9.204;2022-10-14T05:59:57;15.23;;;10.40;;
46487;SDS011;32202;48.780;9.204;2022-10-14T06:02:23;16.63;;;9.27;;
46487;SDS011;32202;48.780;9.204;2022-10-14T06:04:49;14.25;;;8.43;;
46487;SDS011;32202;48.780;9.204;2022-10-14T06:07:15;15.93;;;9.10;;
46487;SDS011;32202;48.780;9.204;2022-10-14T06:09:40;14.35;;;9.15;;
46487;SDS011;32202;48.780;9.204;2022-10-14T06:12:07;24.80;;;9.80;;
46487;SDS011;32202;48.780;9.204;2022-10-14T06:14:33;14.95;;;9.30;;
46487;SDS011;32202;48.780;9.204;2022-10-14T06:17:01;14.98;;;8.95;;
46487;SDS011;32202;48.780;9.204;2022-10-14T06:19:26;15.07;;;9.80;;
46487;SDS011;32202;48.780;9.204;2022-10-14T06:21:52;17.65;;;9.70;;
46487;SDS011;32202;48.780;9.204;2022-10-14T06:24:17;15.32;;;9.07;;
46487;SDS011;32202;48.780;9.204;2022-10-14T06:26:43;16.23;;;10.25;;
46487;SDS011;32202;48.780;9.204;2022-10-14T06:29:09;15.25;;;9.82;;
46487;SDS011;32202;48.780;9.204;2022-10-14T06:31:35;14.90;;;9.30;;
46487;SDS011;32202;48.780;9.204;2022-10-14T06:34:03;16.80;;;8.98;;
46487;SDS011;32202;48.780;9.204;2022-10-14T06:36:29;16.48;;;9.30;;
46487;SDS011;32202;48.780;9.204;2022-10-14T06:38:55;17.05;;;10.43;;
46487;SDS011;32202;48.780;9.204;2022-10-14T06:41:20;25.75;;;16.45;;
46487;SDS011;32202;48.780;9.204;2022-10-14T06:43:46;17.63;;;9.68;;
46487;SDS011;32202;48.780;9.204;2022-10-14T06:46:12;13.23;;;8.40;;
46487;SDS011;32202;48.780;9.204;2022-10-14T06:48:37;14.50;;;9.48;;
46487;SDS011;32202;48.780;9.204;2022-10-14T06:51:03;15.32;;;9.68;;
46487;SDS011;32202;48.780;9.204;2022-10-14T06:53:29;16.42;;;8.98;;
46487;SDS011;32202;48.780;9.204;2022-10-14T06:56:02;13.98;;;8.65;;
46487;SDS011;32202;48.780;9.204;2022-10-14T06:58:29;12.18;;;8.95;;
46487;SDS011;32202;48.780;9.204;2022-10-14T07:01:02;14.65;;;9.00;;
46487;SDS011;32202;48.780;9.204;2022-10-14T07:03:29;19.70;;;13.05;;
46487;SDS011;32202;48.780;9.204;2022-10-14T07:05:55;14.27;;;9.57;;
46487;SDS011;32202;48.780;9.204;2022-10-14T07:08:21;16.98;;;8.95;;
46487;SDS011;32202;48.780;9.204;2022-10-14T07:10:46;15.35;;;10.30;;
46487;SDS011;32202;48.780;9.204;2022-10-14T07:13:12;13.82;;;8.55;;
46487;SDS011;32202;48.780;9.204;2022-10-14T07:15:38;13.38;;;8.95;;
46487;SDS011;32202;48.780;9.204;2022-10-14T07:18:04;13.52;;;8.10;;
46487;SDS011;32202;48.780;9.204;2022-10-14T07:20:31;12.73;;;7.93;;
46487;SDS011;32202;48.780;9.204;2022-10-14T07:22:58;11.93;;;7.85;;
46487;SDS011;32202;48.780;9.204;2022-10-14T07:25:24;12.85;;;8.35;;
46487;SDS011;32202;48.780;9.204;2022-10-14T07:27:50;12.77;;;8.25;;
46487;SDS011;32202;48.780;9.204;2022-10-14T07:30:17;11.00;;;7.22;;
46487;SDS011;32202;48.780;9.204;2022-10-14T07:32:42;12.95;;;7.72;;
46487;SDS011;32202;48.780;9.204;2022-10-14T07:35:08;12.23;;;7.15;;
46487;SDS011;32202;48.780;9.204;2022-10-14T07:37:34;11.20;;;7.38;;
46487;SDS011;32202;48.780;9.204;2022-10-14T07:39:59;12.20;;;7.25;;
46487;SDS011;32202;48.780;9.204;2022-10-14T07:42:25;13.70;;;6.32;;
46487;SDS011;32202;48.780;9.204;2022-10-14T07:44:50;12.50;;;6.75;;
46487;SDS011;32202;48.780;9.204;2022-10-14T07:47:18;12.85;;;6.97;;
46487;SDS011;32202;48.780;9.204;2022-10-14T07:49:44;22.67;;;12.85;;
46487;SDS011;32202;48.780;9.204;2022-10-14T07:52:09;17.48;;;10.70;;
46487;SDS011;32202;48.780;9.204;2022-10-14T07:54:35;13.85;;;7.95;;
46487;SDS011;32202;48.780;9.204;2022-10-14T07:57:01;11.77;;;6.72;;
46487;SDS011;32202;48.780;9.204;2022-10-14T07:59:26;15.75;;;9.68;;
46487;SDS011;32202;48.780;9.204;2022-10-14T08:01:52;10.90;;;6.28;;
46487;SDS011;32202;48.780;9.204;2022-10-14T08:04:19;22.00;;;8.05;;
46487;SDS011;32202;48.780;9.204;2022-10-14T08:06:48;176.43;;;104.30;;
46487;SDS011;32202;48.780;9.204;2022-10-14T08:09:14;23.73;;;14.35;;
46487;SDS011;32202;48.780;9.204;2022-10-14T08:11:40;18.83;;;10.15;;
46487;SDS011;32202;48.780;9.204;2022-10-14T08:14:07;19.17;;;7.95;;
46487;SDS011;32202;48.780;9.204;2022-10-14T08:16:33;16.95;;;8.50;;
46487;SDS011;32202;48.780;9.204;2022-10-14T08:19:00;16.23;;;8.15;;
46487;SDS011;32202;48.780;9.204;2022-10-14T08:21:29;24.90;;;13.73;;
46487;SDS011;32202;48.780;9.204;2022-10-14T08:23:55;30.33;;;18.60;;
46487;SDS011;32202;48.780;9.204;2022-10-14T08:28:47;27.25;;;15.88;;
46487;SDS011;32202;48.780;9.204;2022-10-14T08:31:13;23.17;;;15.73;;
46487;SDS011;32202;48.780;9.204;2022-10-14T08:33:39;35.10;;;19.75;;
46487;SDS011;32202;48.780;9.204;2022-10-14T08:36:05;29.38;;;16.45;;
46487;SDS011;32202;48.780;9.204;2022-10-14T08:38:30;15.77;;;9.93;;
46487;SDS011;32202;48.780;9.204;2022-10-14T08:43:51;91.25;;;53.55;;
46487;SDS011;32202;48.780;9.204;2022-10-14T08:46:46;14.32;;;8.82;;
46487;SDS011;32202;48.780;9.204;2022-10-14T08:52:24;13.48;;;8.27;;
46487;SDS011;32202;48.780;9.204;2022-10-14T08:54:59;40.95;;;26.23;;
46487;SDS011;32202;48.780;9.204;2022-10-14T08:57:30;14.68;;;8.02;;
46487;SDS011;32202;48.780;9.204;2022-10-14T09:00:03;14.73;;;7.28;;
46487;SDS011;32202;48.780;9.204;2022-10-14T09:02:48;33.35;;;19.88;;
46487;SDS011;32202;48.780;9.204;2022-10-14T09:05:16;22.50;;;13.57;;
46487;SDS011;32202;48.780;9.204;2022-10-14T09:07:44;15.27;;;7.50;;
46487;SDS011;32202;48.780;9.204;2022-10-14T09:10:24;21.38;;;12.63;;
46487;SDS011;32202;48.780;9.204;2022-10-14T09:12:57;17.55;;;11.07;;
46487;SDS011;32202;48.780;9.204;2022-10-14T09:15:37;45.58;;;31.10;;
46487;SDS011;32202;48.780;9.204;2022-10-14T09:18:18;42.90;;;28.02;;
46487;SDS011;32202;48.780;9.204;2022-10-14T09:20:47;15.32;;;7.55;;
46487;SDS011;32202;48.780;9.204;2022-10-14T09:23:16;11.75;;;6.45;;
46487;SDS011;32202;48.780;9.204;2022-10-14T09:28:39;12.15;;;6.07;;
46487;SDS011;32202;48.780;9.204;2022-10-14T09:31:09;23.73;;;15.38;;
46487;SDS011;32202;48.780;9.204;2022-10-14T09:33:36;10.25;;;5.68;;
46487;SDS011;32202;48.780;9.204;2022-10-14T09:36:04;24.42;;;19.05;;
46487;SDS011;32202;48.780;9.204;2022-10-14T09:38:30;12.77;;;6.90;;
46487;SDS011;32202;48.780;9.204;2022-10-14T09:40:57;18.10;;;7.05;;
46487;SDS011;32202;48.780;9.204;2022-10-14T09:43:24;12.05;;;5.43;;
46487;SDS011;32202;48.780;9.204;2022-10-14T09:45:51;13.57;;;7.50;;
46487;SDS011;32202;48.780;9.204;2022-10-14T09:50:58;28.08;;;16.77;;
46487;SDS011;32202;48.780;9.204;2022-10-14T09:56:01;13.10;;;8.10;;
46487;SDS011;32202;48.780;9.204;2022-10-14T09:58:37;25.63;;;16.42;;
46487;SDS011;32202;48.780;9.204;2022-10-14T10:01:08;10.27;;;5.53;;
46487;SDS011;32202;48.780;9.204;2022-10-14T10:03:43;17.45;;;9.68;;
46487;SDS011;32202;48.780;9.204;2022-10-14T10:06:11;29.50;;;18.10;;
46487;SDS011;32202;48.780;9.204;2022-10-14T10:08:53;13.45;;;7.72;;
46487;SDS011;32202;48.780;9.204;2022-10-14T10:11:29;10.43;;;6.22;;
46487;SDS011;32202;48.780;9.204;2022-10-14T10:13:57;5.85;;;4.20;;
46487;SDS011;32202;48.780;9.204;2022-10-14T10:16:24;8.10;;;5.05;;
46487;SDS011;32202;48.780;9.204;2022-10-14T10:18:55;9.57;;;5.78;;
46487;SDS011;32202;48.780;9.204;2022-10-14T10:21:28;6.18;;;4.03;;
46487;SDS011;32202;48.780;9.204;2022-10-14T10:26:28;7.75;;;3.95;;
46487;SDS011;32202;48.780;9.204;2022-10-14T10:28:57;6.88;;;3.70;;
46487;SDS011;32202;48.780;9.204;2022-10-14T10:31:30;6.15;;;4.13;;
46487;SDS011;32202;48.780;9.204;2022-10-14T10:36:52;6.70;;;4.00;;
46487;SDS011;32202;48.780;9.204;2022-10-14T10:39:29;9.50;;;4.90;;
46487;SDS011;32202;48.780;9.204;2022-10-14T10:44:51;9.70;;;4.72;;
46487;SDS011;32202;48.780;9.204;2022-10-14T10:47:32;9.18;;;4.43;;
46487;SDS011;32202;48.780;9.204;2022-10-14T10:54:13;10.90;;;4.35;;
46487;SDS011;32202;48.780;9.204;2022-10-14T10:59:20;11.05;;;5.95;;
46487;SDS011;32202;48.780;9.204;2022-10-14T11:14:05;7.95;;;4.22;;
46487;SDS011;32202;48.780;9.204;2022-10-14T11:16:59;5.90;;;3.25;;
46487;SDS011;32202;48.780;9.204;2022-10-14T11:19:49;10.15;;;6.03;;
46487;SDS011;32202;48.780;9.204;2022-10-14T11:44:21;5.90;;;3.72;;
46487;SDS011;32202;48.780;9.204;2022-10-14T11:46:30;6.40;;;3.58;;
46487;SDS011;32202;48.780;9.204;2022-10-14T11:49:01;6.20;;;3.33;;
46487;SDS011;32202;48.780;9.204;2022-10-14T11:51:39;7.03;;;3.20;;
46487;SDS011;32202;48.780;9.204;2022-10-14T11:59:32;4.57;;;2.42;;
46487;SDS011;32202;48.780;9.204;2022-10-14T12:05:17;4.47;;;2.90;;
46487;SDS011;32202;48.780;9.204;2022-10-14T12:07:46;6.45;;;2.78;;
46487;SDS011;32202;48.780;9.204;2022-10-14T12:12:58;6.57;;;2.65;;
46487;SDS011;32202;48.780;9.204;2022-10-14T12:15:25;4.20;;;2.70;;
46487;SDS011;32202;48.780;9.204;2022-10-14T12:17:53;3.75;;;2.28;;
46487;SDS011;32202;48.780;9.204;2022-10-14T12:20:34;4.00;;;2.72;;
46487;SDS011;32202;48.780;9.204;2022-10-14T12:23:26;4.78;;;2.20;;
46487;SDS011;32202;48.780;9.204;2022-10-14T12:26:02;6.28;;;2.70;;
46487;SDS011;32202;48.780;9.204;2022-10-14T12:28:28;10.77;;;6.07;;
46487;SDS011;32202;48.780;9.204;2022-10-14T12:31:18;5.45;;;3.05;;
46487;SDS011;32202;48.780;9.204;2022-10-14T12:36:35;3.67;;;2.30;;
46487;SDS011;32202;48.780;9.204;2022-10-14T12:41:59;3.97;;;1.90;;
46487;SDS011;32202;48.780;9.204;2022-10-14T12:47:23;3.08;;;1.60;;
46487;SDS011;32202;48.780;9.204;2022-10-14T12:49:58;5.80;;;2.45;;
46487;SDS011;32202;48.780;9.204;2022-10-14T12:52:29;3.03;;;1.63;;
46487;SDS011;32202;48.780;9.204;2022-10-14T12:54:59;3.05;;;1.60;;
46487;SDS011;32202;48.780;9.204;2022-10-14T12:57:31;2.28;;;1.65;;
46487;SDS011;32202;48.780;9.204;2022-10-14T13:00:05;5.85;;;1.52;;
46487;SDS011;32202;48.780;9.204;2022-10-14T13:02:49;4.30;;;1.98;;
46487;SDS011;32202;48.780;9.204;2022-10-14T13:05:40;3.67;;;1.63;;
46487;SDS011;32202;48.780;9.204;2022-10-14T13:18:54;3.35;;;1.63;;
46487;SDS011;32202;48.780;9.204;2022-10-14T13:21:26;2.55;;;1.90;;
46487;SDS011;32202;48.780;9.204;2022-10-14T13:23:55;2.05;;;1.42;;
46487;SDS011;32202;48.780;9.204;2022-10-14T13:26:46;3.72;;;2.17;;
46487;SDS011;32202;48.780;9.204;2022-10-14T13:31:46;5.75;;;1.98;;
46487;SDS011;32202;48.780;9.204;2022-10-14T13:34:19;2.55;;;1.60;;
46487;SDS011;32202;48.780;9.204;2022-10-14T13:37:09;3.00;;;1.45;;
46487;SDS011;32202;48.780;9.204;2022-10-14T13:39:57;3.10;;;1.52;;
46487;SDS011;32202;48.780;9.204;2022-10-14T13:42:36;4.88;;;1.70;;
46487;SDS011;32202;48.780;9.204;2022-10-14T13:45:10;2.40;;;1.67;;
46487;SDS011;32202;48.780;9.204;2022-10-14T13:47:42;2.65;;;1.30;;
46487;SDS011;32202;48.780;9.204;2022-10-14T13:50:12;3.85;;;1.27;;
46487;SDS011;32202;48.780;9.204;2022-10-14T13:52:43;2.42;;;1.58;;
46487;SDS011;32202;48.780;9.204;2022-10-14T13:55:30;2.88;;;1.50;;
46487;SDS011;32202;48.780;9.204;2022-10-14T14:00:33;2.90;;;1.63;;
46487;SDS011;32202;48.780;9.204;2022-10-14T14:03:02;3.58;;;1.35;;
46487;SDS011;32202;48.780;9.204;2022-10-14T14:05:48;2.70;;;1.35;;
46487;SDS011;32202;48.780;9.204;2022-10-14T14:08:30;2.05;;;1.33;;
46487;SDS011;32202;48.780;9.204;2022-10-14T14:10:58;2.65;;;1.13;;
46487;SDS011;32202;48.780;9.204;2022-10-14T14:13:28;1.92;;;1.50;;
46487;SDS011;32202;48.780;9.204;2022-10-14T14:15:56;4.22;;;1.77;;
46487;SDS011;32202;48.780;9.204;2022-10-14T14:21:02;1.83;;;1.30;;
46487;SDS011;32202;48.780;9.204;2022-10-14T14:23:28;4.95;;;1.60;;
46487;SDS011;32202;48.780;9.204;2022-10-14T14:25:54;5.97;;;1.90;;
46487;SDS011;32202;48.780;9.204;2022-10-14T14:28:21;1.95;;;1.40;;
46487;SDS011;32202;48.780;9.204;2022-10-14T14:30:56;3.80;;;2.00;;
46487;SDS011;32202;48.780;9.204;2022-10-14T14:33:26;5.55;;;3.00;;
46487;SDS011;32202;48.780;9.204;2022-10-14T14:35:57;6.13;;;2.28;;
46487;SDS011;32202;48.780;9.204;2022-10-14T14:41:03;3.70;;;1.63;;
46487;SDS011;32202;48.780;9.204;2022-10-14T14:43:30;2.85;;;1.75;;
46487;SDS011;32202;48.780;9.204;2022-10-14T14:45:57;3.20;;;1.90;;
46487;SDS011;32202;48.780;9.204;2022-10-14T14:48:26;4.03;;;1.83;;
46487;SDS011;32202;48.780;9.204;2022-10-14T14:50:52;3.75;;;1.60;;
46487;SDS011;32202;48.780;9.204;2022-10-14T14:53:19;3.80;;;1.58;;
46487;SDS011;32202;48.780;9.204;2022-10-14T14:58:41;4.18;;;2.33;;
46487;SDS011;32202;48.780;9.204;2022-10-14T15:01:27;9.57;;;5.72;;
46487;SDS011;32202;48.780;9.204;2022-10-14T15:06:23;5.88;;;2.88;;
46487;SDS011;32202;48.780;9.204;2022-10-14T15:08:50;5.93;;;2.83;;
46487;SDS011;32202;48.780;9.204;2022-10-14T15:11:17;4.05;;;2.50;;
46487;SDS011;32202;48.780;9.204;2022-10-14T15:13:47;5.20;;;2.97;;
46487;SDS011;32202;48.780;9.204;2022-10-14T15:19:12;6.05;;;2.58;;
46487;SDS011;32202;48.780;9.204;2022-10-14T15:22:36;5.57;;;2.08;;
46487;SDS011;32202;48.780;9.204;2022-10-14T15:25:02;5.70;;;2.42;;
46487;SDS011;32202;48.780;9.204;2022-10-14T15:33:02;2.27;;;1.50;;
46487;SDS011;32202;48.780;9.204;2022-10-14T15:35:45;2.05;;;1.50;;
46487;SDS011;32202;48.780;9.204;2022-10-14T15:38:19;2.00;;;1.48;;
46487;SDS011;32202;48.780;9.204;2022-10-14T15:40:45;4.22;;;1.73;;
46487;SDS011;32202;48.780;9.204;2022-10-14T15:43:15;3.55;;;2.22;;
46487;SDS011;32202;48.780;9.204;2022-10-14T15:45:46;7.78;;;1.95;;
46487;SDS011;32202;48.780;9.204;2022-10-14T15:48:34;2.13;;;1.63;;
46487;SDS011;32202;48.780;9.204;2022-10-14T15:51:04;2.95;;;1.67;;
46487;SDS011;32202;48.780;9.204;2022-10-14T15:53:31;3.63;;;1.90;;
46487;SDS011;32202;48.780;9.204;2022-10-14T15:55:57;3.38;;;1.80;;
46487;SDS011;32202;48.780;9.204;2022-10-14T15:58:24;3.40;;;2.33;;
46487;SDS011;32202;48.780;9.204;2022-10-14T16:00:50;5.40;;;2.50;;
46487;SDS011;32202;48.780;9.204;2022-10-14T16:03:17;6.03;;;3.00;;
46487;SDS011;32202;48.780;9.204;2022-10-14T16:05:43;6.75;;;3.90;;
46487;SDS011;32202;48.780;9.204;2022-10-14T16:08:12;4.90;;;2.38;;
46487;SDS011;32202;48.780;9.204;2022-10-14T16:10:38;5.53;;;3.35;;
46487;SDS011;32202;48.780;9.204;2022-10-14T16:13:07;3.35;;;2.17;;
46487;SDS011;32202;48.780;9.204;2022-10-14T16:15:37;6.60;;;3.20;;
46487;SDS011;32202;48.780;9.204;2022-10-14T16:18:07;9.35;;;3.88;;
46487;SDS011;32202;48.780;9.204;2022-10-14T16:20:32;8.73;;;4.40;;
46487;SDS011;32202;48.780;9.204;2022-10-14T16:22:59;4.95;;;1.90;;
46487;SDS011;32202;48.780;9.204;2022-10-14T16:25:30;6.32;;;3.70;;
46487;SDS011;32202;48.780;9.204;2022-10-14T16:28:00;6.28;;;3.00;;
46487;SDS011;32202;48.780;9.204;2022-10-14T16:30:28;7.43;;;3.08;;
46487;SDS011;32202;48.780;9.204;2022-10-14T16:32:55;3.97;;;2.88;;
46487;SDS011;32202;48.780;9.204;2022-10-14T16:35:20;3.85;;;2.25;;
46487;SDS011;32202;48.780;9.204;2022-10-14T16:37:46;4.63;;;2.40;;
46487;SDS011;32202;48.780;9.204;2022-10-14T16:40:12;7.53;;;4.13;;
46487;SDS011;32202;48.780;9.204;2022-10-14T16:42:38;8.52;;;5.60;;
46487;SDS011;32202;48.780;9.204;2022-10-14T16:45:04;4.00;;;2.58;;
46487;SDS011;32202;48.780;9.204;2022-10-14T16:47:30;2.75;;;2.10;;
46487;SDS011;32202;48.780;9.204;2022-10-14T16:49:55;2.38;;;1.92;;
46487;SDS011;32202;48.780;9.204;2022-10-14T16:52:21;4.65;;;2.38;;
46487;SDS011;32202;48.780;9.204;2022-10-14T16:54:47;7.93;;;4.45;;
46487;SDS011;32202;48.780;9.204;2022-10-14T16:57:13;4.80;;;2.83;;
46487;SDS011;32202;48.780;9.204;2022-10-14T16:59:39;2.80;;;1.83;;
46487;SDS011;32202;48.780;9.204;2022-10-14T17:02:05;3.78;;;2.10;;
46487;SDS011;32202;48.780;9.204;2022-10-14T17:04:35;3.28;;;1.75;;
46487;SDS011;32202;48.780;9.204;2022-10-14T17:07:01;3.30;;;1.90;;
46487;SDS011;32202;48.780;9.204;2022-10-14T17:09:34;3.75;;;2.40;;
46487;SDS011;32202;48.780;9.204;2022-10-14T17:12:01;11.70;;;7.32;;
46487;SDS011;32202;48.780;9.204;2022-10-14T17:14:28;2.20;;;1.70;;
46487;SDS011;32202;48.780;9.204;2022-10-14T17:16:55;3.22;;;2.03;;
46487;SDS011;32202;48.780;9.204;2022-10-14T17:19:24;4.85;;;2.10;;
46487;SDS011;32202;48.780;9.204;2022-10-14T17:21:50;4.32;;;2.38;;